Time;durP1;ratioP1;P1;durP2;ratioP2;P2;SDS_P1;SDS_P2;PMS_P1;PMS_P2;Temp;Humidity;BMP_temperature;BMP_pressure;BME280_temperature;BME280_humidity;BME280_pressure;Samples;Min_cycle;Max_cycle;Signal;HPM_P1;HPM_P2
2023/11/25 00:02:07;;;;;;;20.27;3.60;;;;;;;;;;5038146;28;20221;-69
2023/11/25 00:04:33;;;;;;;17.23;2.92;;;;;;;;;;5028246;28;20049;-69
2023/11/25 00:07:00;;;;;;;22.27;4.38;;;;;;;;;;5046430;28;20523;-69
2023/11/25 00:09:26;;;;;;;16.67;3.25;;;;;;;;;;5027646;28;20049;-69
2023/11/25 00:11:52;;;;;;;30.27;4.10;;;;;;;;;;5026861;28;20045;-69
2023/11/25 00:14:18;;;;;;;17.15;3.22;;;;;;;;;;5025487;28;20044;-69
2023/11/25 00:16:45;;;;;;;27.45;4.68;;;;;;;;;;5046861;28;20112;-69
2023/11/25 00:19:11;;;;;;;30.63;4.38;;;;;;;;;;5028196;28;20033;-69
2023/11/25 00:21:37;;;;;;;21.42;4.35;;;;;;;;;;5028111;28;20475;-69
2023/11/25 00:24:03;;;;;;;24.02;3.90;;;;;;;;;;5030147;28;20875;-69
2023/11/25 00:26:29;;;;;;;32.72;3.65;;;;;;;;;;5026596;28;20175;-69
2023/11/25 00:28:56;;;;;;;20.30;3.42;;;;;;;;;;5043750;28;20033;-69
2023/11/25 00:31:22;;;;;;;22.98;4.57;;;;;;;;;;5027833;28;20049;-69
2023/11/25 00:33:49;;;;;;;27.77;4.80;;;;;;;;;;5043706;28;20392;-69
2023/11/25 00:36:15;;;;;;;26.65;4.45;;;;;;;;;;5027732;28;20404;-69
2023/11/25 00:38:41;;;;;;;22.25;4.68;;;;;;;;;;5028053;28;20045;-69
2023/11/25 00:41:08;;;;;;;34.17;4.35;;;;;;;;;;5028489;28;20044;-69
2023/11/25 00:43:34;;;;;;;22.02;4.47;;;;;;;;;;5025353;28;20051;-69
2023/11/25 00:46:02;;;;;;;24.92;3.92;;;;;;;;;;5044943;28;20041;-69
2023/11/25 00:48:31;;;;;;;20.65;3.65;;;;;;;;;;5024239;28;20045;-69
2023/11/25 00:50:57;;;;;;;35.35;6.35;;;;;;;;;;5026524;28;20395;-69
2023/11/25 00:53:24;;;;;;;25.17;3.80;;;;;;;;;;5043022;28;20045;-69
2023/11/25 00:55:50;;;;;;;22.45;4.28;;;;;;;;;;5045730;28;20041;-69
2023/11/25 00:58:16;;;;;;;27.58;4.20;;;;;;;;;;5026714;28;20079;-69
2023/11/25 01:00:42;;;;;;;27.73;3.47;;;;;;;;;;5046234;28;20041;-69
2023/11/25 01:03:08;;;;;;;32.92;4.70;;;;;;;;;;5022345;28;20088;-69
2023/11/25 01:05:34;;;;;;;27.05;4.93;;;;;;;;;;5025403;28;20076;-69
2023/11/25 01:08:01;;;;;;;37.25;6.55;;;;;;;;;;5027196;28;20347;-69
2023/11/25 01:10:28;;;;;;;24.27;3.63;;;;;;;;;;5027294;28;20037;-68
2023/11/25 01:12:54;;;;;;;24.33;2.95;;;;;;;;;;5025838;28;20131;-68
2023/11/25 01:15:20;;;;;;;21.75;4.18;;;;;;;;;;5044311;28;20056;-69
2023/11/25 01:17:46;;;;;;;22.98;3.30;;;;;;;;;;5025378;28;20457;-69
2023/11/25 01:20:13;;;;;;;20.23;3.75;;;;;;;;;;5045169;28;20120;-69
2023/11/25 01:22:40;;;;;;;16.67;2.53;;;;;;;;;;5041826;28;20144;-69
2023/11/25 01:25:07;;;;;;;20.95;3.53;;;;;;;;;;5023924;28;20048;-69
2023/11/25 01:27:35;;;;;;;28.27;3.67;;;;;;;;;;5024315;28;20033;-69
2023/11/25 01:30:04;;;;;;;24.92;3.55;;;;;;;;;;5044720;28;20132;-69
2023/11/25 01:32:31;;;;;;;24.67;3.42;;;;;;;;;;5025864;28;20099;-69
2023/11/25 01:34:57;;;;;;;23.08;3.78;;;;;;;;;;5025842;28;20500;-69
2023/11/25 01:37:26;;;;;;;28.48;3.75;;;;;;;;;;5026761;28;20063;-69
2023/11/25 01:39:53;;;;;;;28.50;3.60;;;;;;;;;;5025728;28;20126;-69
2023/11/25 01:42:19;;;;;;;22.15;3.67;;;;;;;;;;5044908;28;20338;-69
2023/11/25 01:44:45;;;;;;;20.50;3.60;;;;;;;;;;5027274;28;20056;-68
2023/11/25 01:47:13;;;;;;;26.83;4.95;;;;;;;;;;5025177;28;20587;-69
2023/11/25 01:49:40;;;;;;;22.83;3.70;;;;;;;;;;5026819;28;20037;-69
2023/11/25 01:52:08;;;;;;;18.05;3.72;;;;;;;;;;5027359;28;20051;-69
2023/11/25 01:54:34;;;;;;;23.45;4.22;;;;;;;;;;5023623;28;20041;-69
2023/11/25 01:57:02;;;;;;;18.30;3.15;;;;;;;;;;5026867;28;20127;-69
2023/11/25 01:59:30;;;;;;;22.98;3.80;;;;;;;;;;5026107;28;20108;-69
2023/11/25 02:01:57;;;;;;;22.80;3.35;;;;;;;;;;5009700;28;20473;-69
2023/11/25 02:04:23;;;;;;;30.90;3.20;;;;;;;;;;5027953;28;20063;-68
2023/11/25 02:06:50;;;;;;;18.45;3.03;;;;;;;;;;5025290;28;20120;-69
2023/11/25 02:09:17;;;;;;;13.35;3.58;;;;;;;;;;5043116;28;20049;-69
2023/11/25 02:11:57;;;;;;;20.92;3.25;;;;;;;;;;5025441;28;20045;-69
2023/11/25 02:14:24;;;;;;;26.48;3.17;;;;;;;;;;5025986;28;20060;-69
2023/11/25 02:16:51;;;;;;;20.02;3.88;;;;;;;;;;5026511;28;20068;-69
2023/11/25 02:19:19;;;;;;;18.88;3.05;;;;;;;;;;5045543;28;20047;-69
2023/11/25 02:21:45;;;;;;;16.95;3.13;;;;;;;;;;5023599;28;20055;-69
2023/11/25 02:24:12;;;;;;;22.02;3.13;;;;;;;;;;5043417;28;20076;-68
2023/11/25 02:26:38;;;;;;;20.50;2.72;;;;;;;;;;5027850;28;20048;-69
2023/11/25 02:29:05;;;;;;;18.95;2.90;;;;;;;;;;5026506;28;20051;-69
2023/11/25 02:31:32;;;;;;;27.48;3.33;;;;;;;;;;5043646;28;20359;-69
2023/11/25 02:33:59;;;;;;;16.05;2.78;;;;;;;;;;5044773;28;20148;-68
2023/11/25 02:36:26;;;;;;;17.60;2.50;;;;;;;;;;5025332;28;20456;-69
2023/11/25 02:38:53;;;;;;;13.30;2.50;;;;;;;;;;5026043;28;20439;-69
2023/11/25 02:41:19;;;;;;;18.42;2.83;;;;;;;;;;5023171;28;20117;-69
2023/11/25 02:43:46;;;;;;;6.75;1.55;;;;;;;;;;5024909;28;20044;-69
2023/11/25 02:46:12;;;;;;;8.02;1.88;;;;;;;;;;5024920;28;20079;-68
2023/11/25 02:48:39;;;;;;;16.05;2.03;;;;;;;;;;5041726;28;20397;-69
2023/11/25 02:51:07;;;;;;;6.05;1.00;;;;;;;;;;5024655;28;20123;-68
2023/11/25 02:53:33;;;;;;;8.27;1.42;;;;;;;;;;5026088;28;20464;-68
2023/11/25 02:56:00;;;;;;;3.45;0.73;;;;;;;;;;5025545;28;20049;-69
2023/11/25 02:58:27;;;;;;;2.97;0.40;;;;;;;;;;5023807;28;20526;-68
2023/11/25 03:01:01;;;;;;;3.85;0.50;;;;;;;;;;5022892;28;20044;-69
2023/11/25 03:03:28;;;;;;;4.47;0.70;;;;;;;;;;5022983;28;20045;-69
2023/11/25 03:05:54;;;;;;;4.63;0.50;;;;;;;;;;5025454;28;20048;-69
2023/11/25 03:08:22;;;;;;;6.28;0.77;;;;;;;;;;5026071;28;20044;-69
2023/11/25 03:10:50;;;;;;;6.05;1.00;;;;;;;;;;5025275;28;20127;-68
2023/11/25 03:13:17;;;;;;;6.60;1.08;;;;;;;;;;5046418;28;20053;-69
2023/11/25 03:15:43;;;;;;;4.97;0.90;;;;;;;;;;5048268;28;20055;-69
2023/11/25 03:18:10;;;;;;;6.88;1.40;;;;;;;;;;5028685;28;20049;-68
2023/11/25 03:20:39;;;;;;;18.73;1.55;;;;;;;;;;5046606;28;20063;-68
2023/11/25 03:23:06;;;;;;;7.75;0.80;;;;;;;;;;5028288;28;20134;-68
2023/11/25 03:25:33;;;;;;;10.20;1.00;;;;;;;;;;5026572;28;20385;-68
2023/11/25 03:28:04;;;;;;;11.43;1.83;;;;;;;;;;5029913;28;20174;-68
2023/11/25 03:30:31;;;;;;;13.75;1.58;;;;;;;;;;5029385;28;20535;-68
2023/11/25 03:32:57;;;;;;;6.57;1.08;;;;;;;;;;5027052;28;20049;-68
2023/11/25 03:35:23;;;;;;;10.88;1.50;;;;;;;;;;5046935;28;20056;-68
2023/11/25 03:37:50;;;;;;;7.68;1.67;;;;;;;;;;5028861;28;20052;-68
2023/11/25 03:40:16;;;;;;;14.00;2.20;;;;;;;;;;5026328;28;20083;-68
2023/11/25 03:42:44;;;;;;;12.18;1.40;;;;;;;;;;5028100;28;20446;-68
2023/11/25 03:45:12;;;;;;;13.80;1.60;;;;;;;;;;5029087;28;20056;-68
2023/11/25 03:47:40;;;;;;;8.15;1.30;;;;;;;;;;5026432;28;20094;-68
2023/11/25 03:50:06;;;;;;;7.32;1.48;;;;;;;;;;5044189;28;20033;-68
2023/11/25 03:52:32;;;;;;;12.25;1.88;;;;;;;;;;5045441;28;20053;-68
2023/11/25 03:55:02;;;;;;;14.25;1.75;;;;;;;;;;5029851;28;20060;-69
2023/11/25 03:57:28;;;;;;;15.45;2.17;;;;;;;;;;5045868;28;20706;-68
2023/11/25 03:59:54;;;;;;;11.25;2.47;;;;;;;;;;5024629;28;20081;-68
2023/11/25 04:02:20;;;;;;;15.35;2.45;;;;;;;;;;5028083;28;20412;-68
2023/11/25 04:04:47;;;;;;;16.08;2.55;;;;;;;;;;5043928;28;20044;-68
2023/11/25 04:07:13;;;;;;;20.13;3.33;;;;;;;;;;5026261;28;20045;-68
2023/11/25 04:09:39;;;;;;;20.52;2.72;;;;;;;;;;5027236;28;20056;-68
2023/11/25 04:12:06;;;;;;;11.90;2.80;;;;;;;;;;5045332;28;20052;-68
2023/11/25 04:14:32;;;;;;;21.50;3.63;;;;;;;;;;5025659;28;20045;-68
2023/11/25 04:16:58;;;;;;;14.63;1.83;;;;;;;;;;5027223;28;20068;-68
2023/11/25 04:19:24;;;;;;;17.25;2.92;;;;;;;;;;5027997;28;20349;-68
2023/11/25 04:21:51;;;;;;;28.95;4.38;;;;;;;;;;5023721;28;20052;-68
2023/11/25 04:24:19;;;;;;;20.92;3.30;;;;;;;;;;5028335;28;20135;-68
2023/11/25 04:26:45;;;;;;;22.17;3.75;;;;;;;;;;5045991;28;20041;-68
2023/11/25 04:29:11;;;;;;;26.90;4.53;;;;;;;;;;5025910;28;20509;-68
2023/11/25 04:31:38;;;;;;;27.65;3.70;;;;;;;;;;5023264;28;20663;-68
2023/11/25 04:34:05;;;;;;;20.10;3.53;;;;;;;;;;5028714;28;20430;-68
2023/11/25 04:36:32;;;;;;;25.42;4.10;;;;;;;;;;5027368;28;20073;-68
2023/11/25 04:38:59;;;;;;;27.63;3.10;;;;;;;;;;5027284;28;20170;-68
2023/11/25 04:41:26;;;;;;;13.15;2.60;;;;;;;;;;5043706;28;20499;-68
2023/11/25 04:43:52;;;;;;;24.38;3.42;;;;;;;;;;5027332;28;20049;-68
2023/11/25 04:46:18;;;;;;;19.52;2.90;;;;;;;;;;5027804;28;20056;-68
2023/11/25 04:48:44;;;;;;;24.55;4.07;;;;;;;;;;5009204;28;20056;-68
2023/11/25 04:51:10;;;;;;;16.80;2.92;;;;;;;;;;5027421;28;20049;-68
2023/11/25 04:53:36;;;;;;;24.80;3.35;;;;;;;;;;5027703;28;20510;-68
2023/11/25 04:56:04;;;;;;;21.42;2.55;;;;;;;;;;5026487;28;20052;-68
2023/11/25 04:58:30;;;;;;;24.50;3.30;;;;;;;;;;5027801;28;20045;-68
2023/11/25 05:00:57;;;;;;;13.48;1.73;;;;;;;;;;5026878;28;20045;-68
2023/11/25 05:03:25;;;;;;;6.97;1.35;;;;;;;;;;5026352;28;20076;-68
2023/11/25 05:05:52;;;;;;;8.23;1.05;;;;;;;;;;5027115;28;20376;-68
2023/11/25 05:08:18;;;;;;;2.13;0.70;;;;;;;;;;5044814;28;20738;-68
2023/11/25 05:10:44;;;;;;;6.82;1.08;;;;;;;;;;5010488;28;20037;-68
2023/11/25 05:13:11;;;;;;;8.50;1.05;;;;;;;;;;5026259;28;20135;-68
2023/11/25 05:15:37;;;;;;;4.00;1.35;;;;;;;;;;5027228;28;20061;-68
2023/11/25 05:18:03;;;;;;;8.15;1.38;;;;;;;;;;5023753;28;20144;-68
2023/11/25 05:20:29;;;;;;;5.35;1.20;;;;;;;;;;5026277;28;20052;-68
2023/11/25 05:22:56;;;;;;;7.22;1.15;;;;;;;;;;5026440;28;20048;-68
2023/11/25 05:25:22;;;;;;;5.95;1.30;;;;;;;;;;5044452;28;20049;-68
2023/11/25 05:27:48;;;;;;;7.32;0.80;;;;;;;;;;5041597;28;20041;-68
2023/11/25 05:30:15;;;;;;;4.82;0.50;;;;;;;;;;5025526;28;20481;-68
2023/11/25 05:32:43;;;;;;;7.55;0.50;;;;;;;;;;5044387;28;20045;-68
2023/11/25 05:35:10;;;;;;;5.05;0.65;;;;;;;;;;5026572;28;20134;-68
2023/11/25 05:37:36;;;;;;;4.82;1.00;;;;;;;;;;5026909;28;20044;-68
2023/11/25 05:40:06;;;;;;;12.20;2.10;;;;;;;;;;5045242;28;20041;-68
2023/11/25 05:42:32;;;;;;;9.05;1.45;;;;;;;;;;5026026;28;20128;-68
2023/11/25 05:44:58;;;;;;;11.35;2.80;;;;;;;;;;5026392;28;20067;-68
2023/11/25 05:47:25;;;;;;;8.95;1.30;;;;;;;;;;5025659;28;20065;-69
2023/11/25 05:49:51;;;;;;;11.60;3.03;;;;;;;;;;5025509;28;20055;-68
2023/11/25 05:52:17;;;;;;;8.93;1.90;;;;;;;;;;5026191;28;20053;-68
2023/11/25 05:54:44;;;;;;;9.73;1.67;;;;;;;;;;5024672;28;20456;-68
2023/11/25 05:57:10;;;;;;;15.30;1.95;;;;;;;;;;5026641;28;20547;-68
2023/11/25 05:59:36;;;;;;;20.38;2.03;;;;;;;;;;5026793;28;20032;-68
2023/11/25 06:02:02;;;;;;;15.80;2.05;;;;;;;;;;5026028;28;20041;-68
2023/11/25 06:04:28;;;;;;;13.02;2.63;;;;;;;;;;5045298;28;20049;-68
2023/11/25 06:06:55;;;;;;;16.85;2.05;;;;;;;;;;5025937;28;20405;-68
2023/11/25 06:09:21;;;;;;;16.45;2.28;;;;;;;;;;5043399;28;20048;-68
2023/11/25 06:11:51;;;;;;;18.67;3.97;;;;;;;;;;5043586;28;20059;-68
2023/11/25 06:14:19;;;;;;;16.60;2.53;;;;;;;;;;5024723;28;20542;-68
2023/11/25 06:16:46;;;;;;;16.88;2.03;;;;;;;;;;5024818;28;20053;-68
2023/11/25 06:19:14;;;;;;;25.52;3.50;;;;;;;;;;5023409;28;20049;-68
2023/11/25 06:21:41;;;;;;;21.27;3.63;;;;;;;;;;5022756;28;20065;-68
2023/11/25 06:24:07;;;;;;;24.67;3.03;;;;;;;;;;5025371;28;20053;-68
2023/11/25 06:26:34;;;;;;;17.08;3.28;;;;;;;;;;5023955;28;20048;-68
2023/11/25 06:29:01;;;;;;;12.48;2.20;;;;;;;;;;5028273;28;20395;-69
2023/11/25 06:31:27;;;;;;;15.60;2.50;;;;;;;;;;5028279;28;20041;-69
2023/11/25 06:33:53;;;;;;;24.23;2.88;;;;;;;;;;5024026;28;20067;-68
2023/11/25 06:36:19;;;;;;;14.70;1.73;;;;;;;;;;5024527;28;20088;-69
2023/11/25 06:38:45;;;;;;;19.25;4.45;;;;;;;;;;5045028;28;20168;-65
2023/11/25 06:41:12;;;;;;;17.80;2.65;;;;;;;;;;5024778;28;20365;-65
2023/11/25 06:43:38;;;;;;;25.33;3.13;;;;;;;;;;5045487;28;20072;-66
2023/11/25 06:46:05;;;;;;;23.65;3.15;;;;;;;;;;5029474;28;20041;-65
2023/11/25 06:48:31;;;;;;;18.30;2.30;;;;;;;;;;5045755;28;20041;-66
2023/11/25 06:50:59;;;;;;;19.67;3.20;;;;;;;;;;5025560;28;20064;-66
2023/11/25 06:53:25;;;;;;;17.88;2.78;;;;;;;;;;5026229;28;20045;-66
2023/11/25 06:55:51;;;;;;;27.48;3.45;;;;;;;;;;5020703;28;20056;-66
2023/11/25 06:58:18;;;;;;;20.00;3.03;;;;;;;;;;5025374;28;20352;-65
2023/11/25 07:00:44;;;;;;;29.35;4.68;;;;;;;;;;5029283;28;20048;-65
2023/11/25 07:03:11;;;;;;;20.75;4.22;;;;;;;;;;5029074;28;20080;-66
2023/11/25 07:05:38;;;;;;;16.35;3.03;;;;;;;;;;5029761;28;20053;-65
2023/11/25 07:08:05;;;;;;;27.80;4.05;;;;;;;;;;5047900;28;20057;-66
2023/11/25 07:10:34;;;;;;;23.73;4.13;;;;;;;;;;5028489;28;20120;-66
2023/11/25 07:13:01;;;;;;;26.33;4.57;;;;;;;;;;5027839;28;20056;-66
2023/11/25 07:15:29;;;;;;;15.02;2.40;;;;;;;;;;5026050;28;20471;-65
2023/11/25 07:17:55;;;;;;;18.58;2.47;;;;;;;;;;5024297;28;20079;-66
2023/11/25 07:20:22;;;;;;;16.35;2.65;;;;;;;;;;5025065;28;20038;-66
2023/11/25 07:22:48;;;;;;;20.33;3.42;;;;;;;;;;5019678;28;20045;-66
2023/11/25 07:25:14;;;;;;;15.93;2.13;;;;;;;;;;5019753;28;20507;-66
2023/11/25 07:27:44;;;;;;;15.48;2.72;;;;;;;;;;5020962;28;20569;-66
2023/11/25 07:30:11;;;;;;;18.88;2.60;;;;;;;;;;5021314;28;20139;-66
2023/11/25 07:32:37;;;;;;;21.92;3.60;;;;;;;;;;5020529;28;20508;-66
2023/11/25 07:35:06;;;;;;;15.55;2.70;;;;;;;;;;5022999;28;20116;-66
2023/11/25 07:37:34;;;;;;;13.88;2.60;;;;;;;;;;5019875;28;20107;-66
2023/11/25 07:40:03;;;;;;;15.82;2.33;;;;;;;;;;5019893;28;20136;-68
2023/11/25 07:42:29;;;;;;;15.65;2.38;;;;;;;;;;5017162;28;20053;-66
2023/11/25 07:44:56;;;;;;;21.05;3.58;;;;;;;;;;5017697;28;20054;-66
2023/11/25 07:47:22;;;;;;;17.63;2.47;;;;;;;;;;5019122;28;20054;-66
2023/11/25 07:49:48;;;;;;;15.45;2.05;;;;;;;;;;5020892;28;20056;-66
2023/11/25 07:52:15;;;;;;;10.32;2.40;;;;;;;;;;5014384;28;20485;-66
2023/11/25 07:54:41;;;;;;;7.15;1.17;;;;;;;;;;5014579;28;20113;-66
2023/11/25 07:57:09;;;;;;;10.20;1.20;;;;;;;;;;5017712;28;20056;-66
2023/11/25 07:59:35;;;;;;;11.73;2.30;;;;;;;;;;5019197;28;20060;-65
2023/11/25 08:02:02;;;;;;;8.63;1.67;;;;;;;;;;5025048;28;20516;-66
2023/11/25 08:04:29;;;;;;;11.45;1.45;;;;;;;;;;5025572;28;20049;-66
2023/11/25 08:06:56;;;;;;;14.93;1.98;;;;;;;;;;5025272;28;20061;-66
2023/11/25 08:09:23;;;;;;;14.98;3.05;;;;;;;;;;5023506;28;20045;-66
2023/11/25 08:11:49;;;;;;;14.90;2.70;;;;;;;;;;5020758;28;20049;-66
2023/11/25 08:14:17;;;;;;;15.82;1.60;;;;;;;;;;5021385;28;20499;-66
2023/11/25 08:16:43;;;;;;;9.73;2.15;;;;;;;;;;5025822;28;20438;-66
2023/11/25 08:19:09;;;;;;;13.32;2.33;;;;;;;;;;5045398;28;20041;-66
2023/11/25 08:21:35;;;;;;;16.20;2.65;;;;;;;;;;5046165;28;20605;-66
2023/11/25 08:24:02;;;;;;;22.88;2.75;;;;;;;;;;5007484;28;20163;-66
2023/11/25 08:26:29;;;;;;;19.52;2.83;;;;;;;;;;5027470;28;20439;-66
2023/11/25 08:28:56;;;;;;;23.23;3.70;;;;;;;;;;5026345;28;20073;-66
2023/11/25 08:31:23;;;;;;;25.23;5.60;;;;;;;;;;5027697;28;20059;-65
2023/11/25 08:33:49;;;;;;;21.75;3.33;;;;;;;;;;5046381;28;20157;-65
2023/11/25 08:36:17;;;;;;;24.70;3.72;;;;;;;;;;5026825;28;20120;-70
2023/11/25 08:38:44;;;;;;;28.98;5.32;;;;;;;;;;5032077;28;20052;-70
2023/11/25 08:41:11;;;;;;;24.38;2.67;;;;;;;;;;5014800;28;21162;-70
2023/11/25 08:43:40;;;;;;;29.33;3.88;;;;;;;;;;5030859;28;20041;-70
2023/11/25 08:46:06;;;;;;;27.02;4.00;;;;;;;;;;5031241;28;20114;-70
2023/11/25 08:48:33;;;;;;;24.10;3.97;;;;;;;;;;5014805;28;20041;-70
2023/11/25 08:50:59;;;;;;;21.92;4.78;;;;;;;;;;5031420;28;20100;-70
2023/11/25 08:53:27;;;;;;;22.05;3.50;;;;;;;;;;5031771;28;20076;-70
2023/11/25 08:55:55;;;;;;;15.80;2.42;;;;;;;;;;5030298;28;20052;-70
2023/11/25 08:58:24;;;;;;;12.27;2.03;;;;;;;;;;5031883;28;20128;-70
2023/11/25 09:00:51;;;;;;;15.05;2.40;;;;;;;;;;5029442;28;20053;-70
2023/11/25 09:03:18;;;;;;;10.68;2.08;;;;;;;;;;5049390;28;20041;-70
2023/11/25 09:05:47;;;;;;;15.95;3.10;;;;;;;;;;5031232;28;20123;-70
2023/11/25 09:08:14;;;;;;;9.07;1.90;;;;;;;;;;5029995;28;20156;-70
2023/11/25 09:10:41;;;;;;;18.63;2.67;;;;;;;;;;5030350;28;20045;-70
2023/11/25 09:13:07;;;;;;;16.23;2.72;;;;;;;;;;5031916;28;20392;-70
2023/11/25 09:15:34;;;;;;;19.70;2.72;;;;;;;;;;5030651;28;20084;-70
2023/11/25 09:18:01;;;;;;;18.60;4.45;;;;;;;;;;5030429;28;20466;-70
2023/11/25 09:20:27;;;;;;;30.35;4.05;;;;;;;;;;5014484;28;20506;-70
2023/11/25 09:22:53;;;;;;;23.02;4.03;;;;;;;;;;5032002;28;20045;-70
2023/11/25 09:25:20;;;;;;;27.63;3.92;;;;;;;;;;5030503;28;20056;-70
2023/11/25 09:27:47;;;;;;;30.67;4.30;;;;;;;;;;5048706;28;20032;-70
2023/11/25 09:30:14;;;;;;;25.20;4.63;;;;;;;;;;5014059;28;20166;-70
2023/11/25 09:32:42;;;;;;;30.00;4.78;;;;;;;;;;5048803;28;20106;-70
2023/11/25 09:35:10;;;;;;;29.55;4.90;;;;;;;;;;5031355;28;20099;-70
2023/11/25 09:37:37;;;;;;;26.92;6.20;;;;;;;;;;5014534;28;20599;-70
2023/11/25 09:40:05;;;;;;;31.70;5.15;;;;;;;;;;5048410;28;20059;-70
2023/11/25 09:42:32;;;;;;;32.00;3.22;;;;;;;;;;5027436;28;20504;-70
2023/11/25 09:45:00;;;;;;;30.27;6.93;;;;;;;;;;5028065;28;20037;-70
2023/11/25 09:47:26;;;;;;;29.90;5.15;;;;;;;;;;5014253;28;20037;-70
2023/11/25 09:49:52;;;;;;;26.67;3.83;;;;;;;;;;5030953;28;20096;-70
2023/11/25 09:52:20;;;;;;;26.98;3.83;;;;;;;;;;5029303;28;20048;-70
2023/11/25 09:54:46;;;;;;;27.25;3.85;;;;;;;;;;5030038;28;20049;-70
2023/11/25 09:57:17;;;;;;;17.30;3.00;;;;;;;;;;5030379;28;20119;-70
2023/11/25 09:59:44;;;;;;;17.75;2.28;;;;;;;;;;5029062;28;20434;-70
2023/11/25 10:02:10;;;;;;;13.60;2.13;;;;;;;;;;5030141;28;20407;-70
2023/11/25 10:04:39;;;;;;;11.35;2.10;;;;;;;;;;5029856;28;20033;-70
2023/11/25 10:07:06;;;;;;;14.68;2.00;;;;;;;;;;5047195;28;20082;-70
2023/11/25 10:09:39;;;;;;;25.85;3.90;;;;;;;;;;5048942;28;20064;-70
2023/11/25 10:12:07;;;;;;;13.88;2.40;;;;;;;;;;5030510;28;20044;-70
2023/11/25 10:14:34;;;;;;;17.20;2.30;;;;;;;;;;5029144;28;20044;-70
2023/11/25 10:17:15;;;;;;;28.35;4.15;;;;;;;;;;5029745;28;20057;-70
2023/11/25 10:19:42;;;;;;;21.90;3.58;;;;;;;;;;5029374;28;20041;-70
2023/11/25 10:22:08;;;;;;;26.05;3.22;;;;;;;;;;5034184;28;20041;-70
2023/11/25 10:24:34;;;;;;;16.15;3.22;;;;;;;;;;5033654;28;20049;-70
2023/11/25 10:27:00;;;;;;;9.75;1.60;;;;;;;;;;5033217;28;20052;-70
2023/11/25 10:29:28;;;;;;;9.48;1.02;;;;;;;;;;5031510;28;20045;-70
2023/11/25 10:31:56;;;;;;;5.57;0.85;;;;;;;;;;5029425;28;20049;-70
2023/11/25 10:34:24;;;;;;;6.00;1.10;;;;;;;;;;5028567;28;20511;-70
2023/11/25 10:36:50;;;;;;;11.25;1.35;;;;;;;;;;5030161;28;20061;-70
2023/11/25 10:39:18;;;;;;;15.75;1.55;;;;;;;;;;5048017;28;20068;-70
2023/11/25 10:41:50;;;;;;;11.00;1.45;;;;;;;;;;5028865;28;20049;-70
2023/11/25 10:44:17;;;;;;;13.93;2.00;;;;;;;;;;5029731;28;20060;-70
2023/11/25 10:46:44;;;;;;;7.47;1.30;;;;;;;;;;5013045;28;20101;-70
2023/11/25 10:49:11;;;;;;;13.18;2.60;;;;;;;;;;5012403;28;20113;-70
2023/11/25 10:51:39;;;;;;;19.73;2.80;;;;;;;;;;5047176;28;20083;-70
2023/11/25 10:54:08;;;;;;;23.20;3.78;;;;;;;;;;5030465;28;20112;-70
2023/11/25 10:56:36;;;;;;;20.38;2.42;;;;;;;;;;5046716;28;20872;-70
2023/11/25 10:59:02;;;;;;;19.42;2.70;;;;;;;;;;5047152;28;20075;-70
2023/11/25 11:01:30;;;;;;;16.70;2.45;;;;;;;;;;5028406;28;20551;-70
2023/11/25 11:04:03;;;;;;;22.05;2.78;;;;;;;;;;5029044;28;20052;-70
2023/11/25 11:06:34;;;;;;;13.13;1.85;;;;;;;;;;5029036;28;20076;-70
2023/11/25 11:09:03;;;;;;;9.85;1.17;;;;;;;;;;5046375;28;20053;-70
2023/11/25 11:11:35;;;;;;;4.30;1.02;;;;;;;;;;5029021;28;20044;-70
2023/11/25 11:14:07;;;;;;;10.23;1.05;;;;;;;;;;5028798;28;20071;-70
2023/11/25 11:16:40;;;;;;;14.05;1.23;;;;;;;;;;5045211;28;20064;-70
2023/11/25 11:19:10;;;;;;;9.18;1.35;;;;;;;;;;5028011;28;20448;-70
2023/11/25 11:21:38;;;;;;;12.63;1.65;;;;;;;;;;5029169;28;20037;-70
2023/11/25 11:24:08;;;;;;;11.18;1.67;;;;;;;;;;5027974;28;20056;-70
2023/11/25 11:26:38;;;;;;;11.30;1.90;;;;;;;;;;5029598;28;20119;-70
2023/11/25 11:29:09;;;;;;;14.30;2.03;;;;;;;;;;5029203;28;20223;-70
2023/11/25 11:31:47;;;;;;;12.00;2.45;;;;;;;;;;5048793;28;20056;-70
2023/11/25 11:34:13;;;;;;;17.88;3.03;;;;;;;;;;5051493;28;20037;-70
2023/11/25 11:36:40;;;;;;;22.73;3.85;;;;;;;;;;5032389;28;20049;-70
2023/11/25 11:39:11;;;;;;;11.75;1.90;;;;;;;;;;5050474;28;20460;-70
2023/11/25 11:41:39;;;;;;;14.98;2.67;;;;;;;;;;5017046;28;20439;-70
2023/11/25 11:44:06;;;;;;;12.07;2.00;;;;;;;;;;5031713;28;20044;-70
2023/11/25 11:46:42;;;;;;;9.48;1.08;;;;;;;;;;5032422;28;20037;-70
2023/11/25 11:49:09;;;;;;;2.85;0.52;;;;;;;;;;5030766;28;20514;-70
2023/11/25 11:51:35;;;;;;;3.42;1.55;;;;;;;;;;5047747;28;20344;-70
2023/11/25 11:54:20;;;;;;;7.28;1.00;;;;;;;;;;5032754;28;20548;-70
2023/11/25 11:57:01;;;;;;;4.85;1.30;;;;;;;;;;5031144;28;20094;-70
2023/11/25 11:59:51;;;;;;;7.00;1.55;;;;;;;;;;5047641;28;20045;-70
2023/11/25 12:02:18;;;;;;;12.93;1.65;;;;;;;;;;5049765;28;20040;-70
2023/11/25 12:04:44;;;;;;;7.60;1.23;;;;;;;;;;5048817;28;20064;-70
2023/11/25 12:07:10;;;;;;;9.77;1.30;;;;;;;;;;5032477;28;20183;-70
2023/11/25 12:09:37;;;;;;;15.95;1.65;;;;;;;;;;5032771;28;20040;-70
2023/11/25 12:12:03;;;;;;;12.35;1.90;;;;;;;;;;5031440;28;20171;-70
2023/11/25 12:14:29;;;;;;;14.25;1.80;;;;;;;;;;5016257;28;20037;-70
2023/11/25 12:16:55;;;;;;;15.45;2.95;;;;;;;;;;5032353;28;20110;-70
2023/11/25 12:19:22;;;;;;;13.00;1.75;;;;;;;;;;5015531;28;20044;-70
2023/11/25 12:21:48;;;;;;;18.50;2.80;;;;;;;;;;5050860;28;20472;-70
2023/11/25 12:24:14;;;;;;;21.52;2.67;;;;;;;;;;5054454;28;20033;-70
2023/11/25 12:26:43;;;;;;;21.30;2.90;;;;;;;;;;5033091;28;20048;-70
2023/11/25 12:29:11;;;;;;;12.15;2.75;;;;;;;;;;5012995;28;20488;-70
2023/11/25 12:31:38;;;;;;;21.35;3.17;;;;;;;;;;5015729;28;20040;-70
2023/11/25 12:34:04;;;;;;;19.20;3.35;;;;;;;;;;5049271;28;20037;-70
2023/11/25 12:36:30;;;;;;;12.00;2.35;;;;;;;;;;5032534;28;20151;-70
2023/11/25 12:38:57;;;;;;;15.15;2.58;;;;;;;;;;5030982;28;20756;-70
2023/11/25 12:41:23;;;;;;;17.75;2.80;;;;;;;;;;5048529;28;20041;-70
2023/11/25 12:44:05;;;;;;;14.50;2.97;;;;;;;;;;5030442;28;20110;-70
2023/11/25 12:46:31;;;;;;;13.18;2.55;;;;;;;;;;5030262;28;20083;-70
2023/11/25 12:48:59;;;;;;;15.32;3.08;;;;;;;;;;5030514;28;20036;-70
2023/11/25 12:51:25;;;;;;;18.70;3.50;;;;;;;;;;5015211;28;20440;-70
2023/11/25 12:53:54;;;;;;;15.77;2.65;;;;;;;;;;5031637;28;20472;-70
2023/11/25 12:56:22;;;;;;;14.93;2.20;;;;;;;;;;5048949;28;20053;-70
2023/11/25 12:58:48;;;;;;;15.40;1.85;;;;;;;;;;5015300;28;20072;-70
2023/11/25 13:01:15;;;;;;;10.95;2.25;;;;;;;;;;5014154;28;20510;-70
2023/11/25 13:03:41;;;;;;;18.13;1.77;;;;;;;;;;5031259;28;20463;-70
2023/11/25 13:06:11;;;;;;;8.90;1.48;;;;;;;;;;5031864;28;20079;-70
2023/11/25 13:08:45;;;;;;;15.55;1.92;;;;;;;;;;5030407;28;20048;-70
2023/11/25 13:11:15;;;;;;;10.50;1.70;;;;;;;;;;5031307;28;20064;-70
2023/11/25 13:13:41;;;;;;;6.50;1.33;;;;;;;;;;5030230;28;20127;-70
2023/11/25 13:16:10;;;;;;;9.27;1.10;;;;;;;;;;5029634;28;20056;-71
2023/11/25 13:18:36;;;;;;;5.72;1.17;;;;;;;;;;5029256;28;20049;-70
2023/11/25 13:21:06;;;;;;;6.13;1.35;;;;;;;;;;5031371;28;20041;-70
2023/11/25 13:23:33;;;;;;;8.32;1.52;;;;;;;;;;5011368;28;20447;-70
2023/11/25 13:25:59;;;;;;;9.63;1.40;;;;;;;;;;5049372;28;20036;-70
2023/11/25 13:28:26;;;;;;;5.65;1.15;;;;;;;;;;5048087;28;20040;-70
2023/11/25 13:30:52;;;;;;;8.30;1.65;;;;;;;;;;5030034;28;20045;-70
2023/11/25 13:33:18;;;;;;;6.28;1.20;;;;;;;;;;5030976;28;20066;-70
2023/11/25 13:35:44;;;;;;;6.63;0.90;;;;;;;;;;5031071;28;20496;-70
2023/11/25 13:38:12;;;;;;;10.00;1.20;;;;;;;;;;5047208;28;20052;-70
2023/11/25 13:40:39;;;;;;;3.45;0.98;;;;;;;;;;5029969;28;20074;-70
2023/11/25 13:43:05;;;;;;;4.75;0.80;;;;;;;;;;5027936;28;20398;-70
2023/11/25 13:45:32;;;;;;;7.47;1.13;;;;;;;;;;5012638;28;20041;-70
2023/11/25 13:48:00;;;;;;;7.68;1.65;;;;;;;;;;5047976;28;20052;-70
2023/11/25 13:50:26;;;;;;;8.55;2.78;;;;;;;;;;5047430;28;20495;-70
2023/11/25 13:52:53;;;;;;;12.88;1.58;;;;;;;;;;5047783;28;20041;-70
2023/11/25 13:55:20;;;;;;;5.38;1.42;;;;;;;;;;5028460;28;20045;-70
2023/11/25 13:57:47;;;;;;;9.05;2.38;;;;;;;;;;5028996;28;20207;-67
2023/11/25 14:00:15;;;;;;;6.43;1.33;;;;;;;;;;5048694;28;20073;-67
2023/11/25 14:02:42;;;;;;;7.53;1.17;;;;;;;;;;5029861;28;20052;-66
2023/11/25 14:05:08;;;;;;;14.30;1.90;;;;;;;;;;5028774;28;20077;-66
2023/11/25 14:07:37;;;;;;;6.10;1.13;;;;;;;;;;5025712;28;20480;-66
2023/11/25 14:10:04;;;;;;;8.30;1.58;;;;;;;;;;5023386;28;20048;-66
2023/11/25 14:12:31;;;;;;;11.27;1.73;;;;;;;;;;5025835;28;20075;-66
2023/11/25 14:14:58;;;;;;;6.95;1.20;;;;;;;;;;5024161;28;20045;-66
2023/11/25 14:17:25;;;;;;;5.05;0.80;;;;;;;;;;5023959;28;21336;-66
2023/11/25 14:19:52;;;;;;;3.88;0.82;;;;;;;;;;5021889;28;20123;-73
2023/11/25 14:22:19;;;;;;;5.85;1.13;;;;;;;;;;5019014;28;20049;-66
2023/11/25 14:24:45;;;;;;;5.25;0.90;;;;;;;;;;5003536;28;20768;-66
2023/11/25 14:27:12;;;;;;;5.60;0.73;;;;;;;;;;5023350;28;20041;-66
2023/11/25 14:29:38;;;;;;;5.65;0.77;;;;;;;;;;5020045;28;20366;-66
2023/11/25 14:32:05;;;;;;;4.55;0.70;;;;;;;;;;5020766;28;20446;-66
2023/11/25 14:34:32;;;;;;;6.93;0.93;;;;;;;;;;5019743;28;20126;-66